Time;durP1;ratioP1;P1;durP2;ratioP2;P2;SDS_P1;SDS_P2;PMS_P1;PMS_P2;Temp;Humidity;BMP_temperature;BMP_pressure;BME280_temperature;BME280_humidity;BME280_pressure;Samples;Min_cycle;Max_cycle;Signal;HPM_P1;HPM_P2
2022/01/29 00:02:24;;;;;;;;;;;11.50;99.90;;;;;;5132642;28;19908;-78
2022/01/29 00:04:50;;;;;;;;;;;11.50;99.90;;;;;;5132232;28;19908;-77
2022/01/29 00:07:16;;;;;;;;;;;11.50;99.90;;;;;;5113224;28;19918;-77
2022/01/29 00:09:43;;;;;;;;;;;11.50;99.90;;;;;;5132016;28;19908;-77
2022/01/29 00:12:10;;;;;;;;;;;11.50;99.90;;;;;;5133563;27;20408;-78
2022/01/29 00:14:35;;;;;;;;;;;11.50;99.90;;;;;;5136211;27;19907;-77
2022/01/29 00:17:01;;;;;;;;;;;11.50;99.90;;;;;;5135570;27;19911;-77
2022/01/29 00:19:26;;;;;;;;;;;11.50;99.90;;;;;;5136205;27;20002;-78
2022/01/29 00:21:52;;;;;;;;;;;11.50;99.90;;;;;;5136041;27;20002;-76
2022/01/29 00:24:17;;;;;;;;;;;11.50;99.90;;;;;;5135553;27;19907;-77
2022/01/29 00:26:43;;;;;;;;;;;11.50;99.90;;;;;;5135552;27;19954;-77
2022/01/29 00:29:17;;;;;;;;;;;11.50;99.90;;;;;;5134975;27;20390;-77
2022/01/29 00:31:42;;;;;;;;;;;11.50;99.90;;;;;;5136562;27;19919;-77
2022/01/29 00:34:08;;;;;;;;;;;11.50;99.90;;;;;;5135682;27;19914;-77
2022/01/29 00:36:34;;;;;;;;;;;11.50;99.90;;;;;;5136326;27;20279;-77
2022/01/29 00:38:59;;;;;;;;;;;11.50;99.90;;;;;;5135645;27;19966;-76
2022/01/29 00:41:25;;;;;;;;;;;11.50;99.90;;;;;;5135720;27;20356;-77
2022/01/29 00:43:50;;;;;;;;;;;11.40;99.90;;;;;;5136280;27;19907;-77
2022/01/29 00:46:16;;;;;;;;;;;11.40;99.90;;;;;;5117040;27;19903;-77
2022/01/29 00:48:41;;;;;;;;;;;11.40;99.90;;;;;;5136251;27;20367;-77
2022/01/29 00:51:07;;;;;;;;;;;11.40;99.90;;;;;;5113086;28;19920;-76
2022/01/29 00:53:33;;;;;;;;;;;11.40;99.90;;;;;;5115519;28;19919;-77
2022/01/29 00:55:58;;;;;;;;;;;11.30;99.90;;;;;;5114669;28;19912;-76
2022/01/29 00:58:24;;;;;;;;;;;11.30;99.90;;;;;;5115343;28;19912;-76
2022/01/29 01:00:49;;;;;;;;;;;11.30;99.90;;;;;;5116367;28;19908;-77
2022/01/29 01:03:15;;;;;;;;;;;11.20;99.90;;;;;;5114390;28;19954;-77
2022/01/29 01:05:40;;;;;;;;;;;11.20;99.90;;;;;;5115431;28;20269;-77
2022/01/29 01:08:08;;;;;;;;;;;11.20;99.90;;;;;;5114513;28;19953;-77
2022/01/29 01:10:34;;;;;;;;;;;11.20;99.90;;;;;;5114959;28;19969;-77
2022/01/29 01:12:59;;;;;;;;;;;11.10;99.90;;;;;;5114630;28;20360;-76
2022/01/29 01:15:25;;;;;;;;;;;11.20;99.90;;;;;;5115102;28;19912;-77
2022/01/29 01:17:50;;;;;;;;;;;11.20;99.90;;;;;;5115199;28;20441;-77
2022/01/29 01:20:16;;;;;;;;;;;11.20;99.90;;;;;;5114317;27;19916;-77
2022/01/29 01:22:42;;;;;;;;;;;11.20;99.90;;;;;;5114429;28;19908;-77
2022/01/29 01:25:08;;;;;;;;;;;11.20;99.90;;;;;;5113974;28;20364;-77
2022/01/29 01:27:33;;;;;;;;;;;11.30;99.90;;;;;;5113698;28;19950;-77
2022/01/29 01:29:59;;;;;;;;;;;11.30;99.90;;;;;;5114505;28;19955;-76
2022/01/29 01:32:25;;;;;;;;;;;11.30;99.90;;;;;;5114976;28;19908;-77
2022/01/29 01:34:54;;;;;;;;;;;11.30;99.90;;;;;;5114585;28;19933;-77
2022/01/29 01:37:36;;;;;;;;;;;11.30;99.90;;;;;;5113834;28;20496;-77
2022/01/29 01:40:02;;;;;;;;;;;11.30;99.90;;;;;;5114062;28;19916;-76
2022/01/29 01:42:28;;;;;;;;;;;11.30;99.90;;;;;;5129922;28;19915;-77
2022/01/29 01:44:55;;;;;;;;;;;11.40;99.90;;;;;;5133693;27;19908;-77
2022/01/29 01:47:21;;;;;;;;;;;11.30;99.90;;;;;;5123864;28;19904;-77
2022/01/29 01:49:46;;;;;;;;;;;11.30;99.90;;;;;;5117407;27;19919;-77
2022/01/29 01:52:13;;;;;;;;;;;11.30;99.90;;;;;;5133961;27;19984;-77
2022/01/29 01:54:39;;;;;;;;;;;11.30;99.90;;;;;;5135095;27;20321;-77
2022/01/29 01:57:05;;;;;;;;;;;11.30;99.90;;;;;;5133948;27;20431;-76
2022/01/29 01:59:31;;;;;;;;;;;11.40;99.90;;;;;;5134850;27;19964;-77
2022/01/29 02:01:57;;;;;;;;;;;11.40;99.90;;;;;;5134590;27;19911;-76
2022/01/29 02:04:23;;;;;;;;;;;11.40;99.90;;;;;;5133862;27;19968;-76
2022/01/29 02:06:53;;;;;;;;;;;11.40;99.90;;;;;;5134349;27;19991;-76
2022/01/29 02:09:20;;;;;;;;;;;11.50;99.90;;;;;;5133479;27;19908;-76
2022/01/29 02:11:53;;;;;;;;;;;11.50;99.90;;;;;;5134156;27;20314;-76
2022/01/29 02:14:20;;;;;;;;;;;11.60;99.90;;;;;;5133707;27;19913;-76
2022/01/29 02:16:46;;;;;;;;;;;11.60;99.90;;;;;;5134419;27;19911;-76
2022/01/29 02:19:11;;;;;;;;;;;11.70;99.90;;;;;;5133543;27;20294;-75
2022/01/29 02:21:37;;;;;;;;;;;11.70;99.90;;;;;;5134234;27;19915;-75
2022/01/29 02:24:03;;;;;;;;;;;11.70;99.90;;;;;;5133918;27;20419;-75
2022/01/29 02:26:29;;;;;;;;;;;11.80;99.90;;;;;;5133970;27;19914;-76
2022/01/29 02:28:55;;;;;;;;;;;11.70;99.90;;;;;;5134275;27;19908;-76
2022/01/29 02:31:21;;;;;;;;;;;11.80;99.90;;;;;;5132932;27;19911;-75
2022/01/29 02:33:46;;;;;;;;;;;11.80;99.90;;;;;;5134203;27;19907;-75
2022/01/29 02:36:12;;;;;;;;;;;11.90;99.90;;;;;;5133141;27;19960;-75
2022/01/29 02:38:38;;;;;;;;;;;12.00;99.90;;;;;;5134076;27;20312;-75
2022/01/29 02:41:06;;;;;;;;;;;12.00;99.90;;;;;;5133721;27;19914;-75
2022/01/29 02:43:46;;;;;;;;;;;12.00;99.90;;;;;;5133677;27;19930;-75
2022/01/29 02:48:52;;;;;;;;;;;12.10;99.90;;;;;;5133993;27;19907;-75
2022/01/29 02:51:18;;;;;;;;;;;12.10;99.90;;;;;;5116436;27;19920;-76
2022/01/29 02:53:44;;;;;;;;;;;12.00;99.90;;;;;;5135288;27;19907;-76
2022/01/29 02:56:09;;;;;;;;;;;12.10;99.90;;;;;;5132952;27;19916;-76
2022/01/29 02:58:35;;;;;;;;;;;12.00;99.90;;;;;;5133825;27;19911;-76
2022/01/29 03:01:01;;;;;;;;;;;12.10;99.90;;;;;;5133720;27;19908;-76
2022/01/29 03:03:27;;;;;;;;;;;12.10;99.90;;;;;;5132456;27;20750;-77
2022/01/29 03:05:53;;;;;;;;;;;12.10;99.90;;;;;;5115430;27;19912;-77
2022/01/29 03:08:18;;;;;;;;;;;12.10;99.90;;;;;;5132839;27;20417;-76
2022/01/29 03:10:47;;;;;;;;;;;12.10;99.90;;;;;;5133659;27;20002;-76
2022/01/29 03:13:13;;;;;;;;;;;12.10;99.90;;;;;;5132540;27;19908;-75
2022/01/29 03:15:38;;;;;;;;;;;12.00;99.90;;;;;;5133360;27;19911;-75
2022/01/29 03:18:04;;;;;;;;;;;12.00;99.90;;;;;;5133457;28;20364;-75
2022/01/29 03:20:30;;;;;;;;;;;12.00;99.90;;;;;;5132923;28;19950;-76
2022/01/29 03:22:56;;;;;;;;;;;12.00;99.90;;;;;;5145095;28;20372;-75
2022/01/29 03:25:22;;;;;;;;;;;12.00;99.90;;;;;;5149408;28;19978;-75
2022/01/29 03:27:48;;;;;;;;;;;12.00;99.90;;;;;;5139291;28;20059;-75
2022/01/29 03:30:13;;;;;;;;;;;12.00;99.90;;;;;;5132699;28;20367;-75
2022/01/29 03:32:39;;;;;;;;;;;12.00;99.90;;;;;;5133852;28;19908;-76
2022/01/29 03:35:05;;;;;;;;;;;12.00;99.90;;;;;;5133341;28;19922;-76
2022/01/29 03:37:30;;;;;;;;;;;12.00;99.90;;;;;;5132547;28;20441;-76
2022/01/29 03:40:02;;;;;;;;;;;12.00;99.90;;;;;;5133398;28;19908;-75
2022/01/29 03:42:30;;;;;;;;;;;12.00;99.90;;;;;;5113927;28;20481;-76
2022/01/29 03:44:57;;;;;;;;;;;12.00;99.90;;;;;;5115167;28;19960;-76
2022/01/29 03:47:23;;;;;;;;;;;12.00;99.90;;;;;;5135099;27;19912;-76
2022/01/29 03:49:48;;;;;;;;;;;12.00;99.90;;;;;;5118653;27;19926;-77
2022/01/29 03:52:14;;;;;;;;;;;12.00;99.90;;;;;;5136736;27;19908;-76
2022/01/29 03:54:40;;;;;;;;;;;12.00;99.90;;;;;;5137570;27;19907;-78
2022/01/29 03:57:05;;;;;;;;;;;12.00;99.90;;;;;;5136965;27;19916;-77
2022/01/29 03:59:31;;;;;;;;;;;12.00;99.90;;;;;;5136820;27;20438;-77
2022/01/29 04:01:56;;;;;;;;;;;12.00;99.90;;;;;;5136913;27;20006;-77
2022/01/29 04:04:22;;;;;;;;;;;11.90;99.90;;;;;;5136405;27;19960;-77
2022/01/29 04:06:49;;;;;;;;;;;11.90;99.90;;;;;;5136928;27;20002;-77
2022/01/29 04:09:15;;;;;;;;;;;11.90;99.90;;;;;;5117815;27;20280;-76
2022/01/29 04:11:41;;;;;;;;;;;11.90;99.90;;;;;;5137388;27;20020;-77
2022/01/29 04:14:16;;;;;;;;;;;11.90;99.90;;;;;;5136697;27;20368;-76
2022/01/29 04:16:41;;;;;;;;;;;11.90;99.90;;;;;;5136830;27;19912;-76
2022/01/29 04:19:07;;;;;;;;;;;11.90;99.90;;;;;;5136778;27;20271;-76
2022/01/29 04:21:33;;;;;;;;;;;12.00;99.90;;;;;;5135987;27;20542;-76
2022/01/29 04:23:58;;;;;;;;;;;11.90;99.90;;;;;;5136551;27;20016;-76
2022/01/29 04:26:24;;;;;;;;;;;12.00;99.90;;;;;;5135948;27;19914;-76
2022/01/29 04:28:51;;;;;;;;;;;12.00;99.90;;;;;;5136674;27;19907;-76
2022/01/29 04:31:19;;;;;;;;;;;12.00;99.90;;;;;;5135772;27;19914;-76
2022/01/29 04:33:45;;;;;;;;;;;12.00;99.90;;;;;;5136805;27;19915;-76
2022/01/29 04:36:11;;;;;;;;;;;12.10;99.90;;;;;;5136122;27;19912;-76
2022/01/29 04:38:36;;;;;;;;;;;12.10;99.90;;;;;;5136004;27;19945;-76
2022/01/29 04:41:04;;;;;;;;;;;12.10;99.90;;;;;;5136023;27;19907;-76
2022/01/29 04:43:33;;;;;;;;;;;12.10;99.90;;;;;;5135492;27;19926;-76
2022/01/29 04:45:59;;;;;;;;;;;12.10;99.90;;;;;;5136244;27;19913;-76
2022/01/29 04:48:25;;;;;;;;;;;12.10;99.90;;;;;;5135183;27;20010;-77
2022/01/29 04:50:50;;;;;;;;;;;12.00;99.90;;;;;;5136181;27;19926;-76
2022/01/29 04:53:16;;;;;;;;;;;12.00;99.90;;;;;;5135397;27;19908;-76
2022/01/29 04:55:41;;;;;;;;;;;12.00;99.90;;;;;;5136390;27;19916;-76
2022/01/29 04:58:07;;;;;;;;;;;12.00;99.90;;;;;;5134919;27;19911;-76
2022/01/29 05:00:34;;;;;;;;;;;12.10;99.90;;;;;;5135255;27;19908;-76
2022/01/29 05:03:10;;;;;;;;;;;12.10;99.90;;;;;;5135927;27;19938;-77
2022/01/29 05:05:36;;;;;;;;;;;12.00;99.90;;;;;;5117314;27;19923;-76
2022/01/29 05:08:02;;;;;;;;;;;12.00;99.90;;;;;;5136002;27;19914;-76
2022/01/29 05:10:29;;;;;;;;;;;12.00;99.90;;;;;;5135014;27;19959;-76
2022/01/29 05:13:01;;;;;;;;;;;12.00;99.90;;;;;;5135754;27;19915;-77
2022/01/29 05:28:53;;;;;;;;;;;12.10;99.90;;;;;;5135374;27;19995;-76
2022/01/29 05:31:18;;;;;;;;;;;12.10;99.90;;;;;;5134408;27;20345;-75
2022/01/29 05:33:44;;;;;;;;;;;12.20;99.90;;;;;;5135123;27;19914;-76
2022/01/29 05:36:09;;;;;;;;;;;12.20;99.90;;;;;;5135292;27;19958;-76
2022/01/29 05:38:35;;;;;;;;;;;12.20;99.90;;;;;;5134307;27;19949;-76
2022/01/29 05:41:04;;;;;;;;;;;12.20;99.90;;;;;;5135160;27;19960;-76
2022/01/29 05:43:29;;;;;;;;;;;12.20;99.90;;;;;;5134404;27;19942;-76
2022/01/29 05:45:55;;;;;;;;;;;12.20;99.90;;;;;;5134949;27;19955;-76
2022/01/29 05:48:21;;;;;;;;;;;12.20;99.90;;;;;;5134297;27;19914;-76
2022/01/29 05:50:46;;;;;;;;;;;12.20;99.90;;;;;;5134814;27;19923;-76
2022/01/29 05:53:12;;;;;;;;;;;12.20;99.90;;;;;;5116380;27;19907;-76
2022/01/29 05:55:37;;;;;;;;;;;12.20;99.90;;;;;;5134045;27;19993;-76
2022/01/29 05:58:03;;;;;;;;;;;12.20;99.90;;;;;;5134596;27;20006;-76
2022/01/29 06:00:29;;;;;;;;;;;12.30;99.90;;;;;;5134037;27;19986;-75
2022/01/29 06:03:12;;;;;;;;;;;12.20;99.90;;;;;;5135645;27;20447;-77
2022/01/29 06:05:38;;;;;;;;;;;12.20;99.90;;;;;;5133965;27;19986;-76
2022/01/29 06:08:04;;;;;;;;;;;12.20;99.90;;;;;;5134321;27;20348;-76
2022/01/29 06:10:30;;;;;;;;;;;12.20;99.90;;;;;;5133365;27;19912;-76
2022/01/29 06:13:10;;;;;;;;;;;12.20;99.90;;;;;;5133923;27;19907;-76
2022/01/29 06:15:39;;;;;;;;;;;12.20;99.90;;;;;;5133838;27;19911;-76
2022/01/29 06:18:05;;;;;;;;;;;12.20;99.90;;;;;;5134303;27;19911;-76
2022/01/29 06:20:31;;;;;;;;;;;12.30;99.90;;;;;;5133420;27;20041;-76
2022/01/29 06:22:56;;;;;;;;;;;12.20;99.90;;;;;;5134535;27;20358;-76
2022/01/29 06:25:22;;;;;;;;;;;12.20;99.90;;;;;;5133482;27;19951;-75
2022/01/29 06:27:48;;;;;;;;;;;12.30;99.90;;;;;;5133987;27;20269;-76
2022/01/29 06:30:14;;;;;;;;;;;12.30;99.90;;;;;;5134306;27;19907;-76
2022/01/29 06:32:40;;;;;;;;;;;12.30;99.90;;;;;;5133420;27;19914;-76
2022/01/29 06:35:06;;;;;;;;;;;12.20;99.90;;;;;;5133921;27;19908;-76
2022/01/29 06:37:31;;;;;;;;;;;12.20;99.90;;;;;;5133043;27;19915;-76
2022/01/29 06:39:57;;;;;;;;;;;12.20;99.90;;;;;;5115719;27;19911;-76
2022/01/29 06:42:22;;;;;;;;;;;12.20;99.90;;;;;;5133313;27;20006;-75
2022/01/29 06:44:48;;;;;;;;;;;12.30;99.90;;;;;;5133845;27;19923;-77
2022/01/29 06:47:14;;;;;;;;;;;12.20;99.90;;;;;;5133141;27;20352;-76
2022/01/29 06:49:39;;;;;;;;;;;12.30;99.90;;;;;;5133085;27;19915;-76
2022/01/29 06:52:05;;;;;;;;;;;12.20;99.90;;;;;;5134207;27;19908;-77
2022/01/29 06:54:31;;;;;;;;;;;12.20;99.90;;;;;;5133250;27;19916;-77
2022/01/29 06:56:56;;;;;;;;;;;12.20;99.90;;;;;;5133787;27;19919;-76
2022/01/29 06:59:22;;;;;;;;;;;12.20;99.90;;;;;;5133575;27;19915;-75
2022/01/29 07:01:47;;;;;;;;;;;12.20;99.90;;;;;;5133029;27;20356;-76
2022/01/29 07:04:13;;;;;;;;;;;12.20;99.90;;;;;;5115510;27;19908;-77
2022/01/29 07:06:39;;;;;;;;;;;12.20;99.90;;;;;;5132621;27;20003;-76
2022/01/29 07:09:05;;;;;;;;;;;12.20;99.90;;;;;;5133586;27;19965;-76
2022/01/29 07:11:30;;;;;;;;;;;12.20;99.90;;;;;;5132725;27;19907;-76
2022/01/29 07:14:03;;;;;;;;;;;12.20;99.90;;;;;;5133077;27;20233;-77
2022/01/29 07:16:29;;;;;;;;;;;12.20;99.90;;;;;;5132531;27;19954;-76
2022/01/29 07:18:55;;;;;;;;;;;12.20;99.90;;;;;;5136428;28;19934;-77
2022/01/29 07:21:21;;;;;;;;;;;12.20;99.90;;;;;;5133072;27;20006;-77
2022/01/29 07:23:46;;;;;;;;;;;12.20;99.90;;;;;;5132658;28;19922;-77
2022/01/29 07:26:12;;;;;;;;;;;12.10;99.90;;;;;;5133523;28;20310;-76
2022/01/29 07:28:39;;;;;;;;;;;12.10;99.90;;;;;;5114217;28;19911;-76
2022/01/29 07:31:04;;;;;;;;;;;12.10;99.90;;;;;;5133430;28;19907;-76
2022/01/29 07:33:30;;;;;;;;;;;12.00;99.90;;;;;;5132287;28;19912;-76
2022/01/29 07:35:56;;;;;;;;;;;12.10;99.90;;;;;;5133055;28;19911;-76
2022/01/29 07:38:22;;;;;;;;;;;12.00;99.90;;;;;;5133342;28;19911;-76
2022/01/29 07:40:47;;;;;;;;;;;12.00;99.90;;;;;;5140040;28;19922;-77
2022/01/29 07:43:13;;;;;;;;;;;12.00;99.90;;;;;;5132735;28;19933;-77
2022/01/29 07:45:39;;;;;;;;;;;11.90;99.90;;;;;;5143406;28;19915;-76
2022/01/29 07:48:04;;;;;;;;;;;11.90;99.90;;;;;;5133633;28;19961;-76
2022/01/29 07:50:30;;;;;;;;;;;11.80;99.90;;;;;;5132062;27;19925;-75
2022/01/29 07:52:57;;;;;;;;;;;11.80;99.90;;;;;;5132998;28;19914;-76
2022/01/29 07:55:23;;;;;;;;;;;11.80;99.90;;;;;;5133187;28;19956;-76
2022/01/29 07:57:49;;;;;;;;;;;11.80;99.90;;;;;;5132384;28;19958;-76
2022/01/29 08:00:15;;;;;;;;;;;11.80;99.90;;;;;;5132901;28;19994;-76
2022/01/29 08:02:41;;;;;;;;;;;11.80;99.90;;;;;;5132299;28;20339;-76
2022/01/29 08:05:07;;;;;;;;;;;11.70;99.90;;;;;;5133161;28;19915;-76
2022/01/29 08:07:33;;;;;;;;;;;11.70;99.90;;;;;;5114015;28;19912;-75
2022/01/29 08:09:58;;;;;;;;;;;11.70;99.90;;;;;;5133045;28;20326;-76
2022/01/29 08:12:24;;;;;;;;;;;11.70;99.90;;;;;;5133302;28;19911;-76
2022/01/29 08:14:49;;;;;;;;;;;11.70;99.90;;;;;;5132168;28;19907;-76
2022/01/29 08:17:15;;;;;;;;;;;11.70;99.90;;;;;;5132991;28;20310;-77
2022/01/29 08:19:41;;;;;;;;;;;11.70;99.90;;;;;;5131904;28;19918;-78
2022/01/29 08:22:06;;;;;;;;;;;11.70;99.90;;;;;;5132913;28;19908;-78
2022/01/29 08:24:32;;;;;;;;;;;11.70;99.90;;;;;;5113572;28;19930;-77
2022/01/29 08:26:57;;;;;;;;;;;11.70;99.90;;;;;;5133304;28;19961;-78
2022/01/29 08:29:23;;;;;;;;;;;11.60;99.90;;;;;;5133034;28;20281;-77
2022/01/29 08:31:48;;;;;;;;;;;11.60;99.90;;;;;;5131679;27;20087;-77
2022/01/29 08:34:14;;;;;;;;;;;11.60;99.90;;;;;;5149851;27;19908;-79
2022/01/29 08:36:40;;;;;;;;;;;11.60;99.90;;;;;;5136162;27;19951;-78
2022/01/29 08:39:06;;;;;;;;;;;11.60;99.90;;;;;;5135944;27;20283;-78
2022/01/29 08:41:31;;;;;;;;;;;11.60;99.90;;;;;;5135258;27;19915;-77
2022/01/29 08:43:57;;;;;;;;;;;11.60;99.90;;;;;;5135846;27;19960;-78
2022/01/29 08:46:23;;;;;;;;;;;11.60;99.90;;;;;;5135820;27;20313;-78
2022/01/29 08:48:49;;;;;;;;;;;11.60;99.90;;;;;;5134623;27;19911;-78
2022/01/29 08:51:15;;;;;;;;;;;11.60;99.90;;;;;;5135829;27;19924;-78
2022/01/29 08:53:41;;;;;;;;;;;11.60;99.90;;;;;;5135656;27;20267;-78
2022/01/29 08:56:07;;;;;;;;;;;11.60;99.90;;;;;;5135938;27;19912;-78
2022/01/29 08:58:32;;;;;;;;;;;11.60;99.90;;;;;;5135105;27;20006;-77
2022/01/29 09:00:59;;;;;;;;;;;11.60;99.90;;;;;;5135676;27;20305;-78
2022/01/29 09:03:24;;;;;;;;;;;11.60;99.90;;;;;;5135727;27;19930;-79
2022/01/29 09:05:50;;;;;;;;;;;11.60;99.90;;;;;;5134354;27;20001;-78
2022/01/29 09:08:17;;;;;;;;;;;11.60;99.90;;;;;;5135215;27;19960;-78
2022/01/29 09:10:42;;;;;;;;;;;11.60;99.90;;;;;;5134657;27;19915;-77
2022/01/29 09:13:08;;;;;;;;;;;11.70;99.90;;;;;;5135207;27;19908;-78
2022/01/29 09:15:34;;;;;;;;;;;11.70;99.90;;;;;;5134586;27;19907;-78
2022/01/29 09:17:59;;;;;;;;;;;11.70;99.90;;;;;;5136025;27;20002;-79
2022/01/29 09:20:25;;;;;;;;;;;11.70;99.90;;;;;;5138014;27;20268;-81
2022/01/29 09:22:51;;;;;;;;;;;11.70;99.90;;;;;;5137914;27;19904;-82
2022/01/29 09:25:19;;;;;;;;;;;11.70;99.90;;;;;;5135620;27;19911;-86
2022/01/29 09:27:44;;;;;;;;;;;11.70;99.90;;;;;;5117048;27;19915;-85
2022/01/29 09:30:11;;;;;;;;;;;11.70;99.90;;;;;;5117058;27;19923;-82
2022/01/29 09:32:36;;;;;;;;;;;11.60;99.90;;;;;;5134261;27;19915;-83
2022/01/29 09:35:02;;;;;;;;;;;11.50;99.90;;;;;;5132492;27;20002;-81
2022/01/29 09:37:28;;;;;;;;;;;11.50;99.90;;;;;;5134711;27;19912;-83
2022/01/29 09:39:53;;;;;;;;;;;11.40;99.90;;;;;;5133878;27;19912;-82
2022/01/29 09:42:19;;;;;;;;;;;11.40;99.90;;;;;;5134925;27;19952;-82
2022/01/29 09:44:46;;;;;;;;;;;11.40;99.90;;;;;;5133352;27;19914;-81
2022/01/29 09:47:12;;;;;;;;;;;11.30;99.90;;;;;;5133825;27;20052;-78
2022/01/29 09:49:38;;;;;;;;;;;11.30;99.90;;;;;;5139821;27;19914;-78
2022/01/29 09:52:03;;;;;;;;;;;11.40;99.90;;;;;;5149632;27;19998;-80
2022/01/29 09:54:29;;;;;;;;;;;11.20;99.90;;;;;;5135257;27;19907;-80
2022/01/29 09:56:55;;;;;;;;;;;11.00;99.90;;;;;;5133947;27;20351;-80
2022/01/29 09:59:21;;;;;;;;;;;10.80;99.90;;;;;;5134588;27;19911;-79
2022/01/29 10:01:46;;;;;;;;;;;10.60;99.90;;;;;;5133918;27;19907;-79
2022/01/29 10:04:14;;;;;;;;;;;10.40;99.90;;;;;;5133877;27;20243;-79
2022/01/29 10:06:43;;;;;;;;;;;10.30;99.90;;;;;;5134473;27;19972;-78
2022/01/29 10:09:11;;;;;;;;;;;10.20;99.90;;;;;;5134797;27;19908;-79
2022/01/29 10:11:37;;;;;;;;;;;10.10;99.90;;;;;;5134069;27;19908;-76
2022/01/29 10:14:03;;;;;;;;;;;10.10;99.90;;;;;;5134775;27;19925;-78
2022/01/29 10:16:30;;;;;;;;;;;10.10;99.90;;;;;;5133965;27;20352;-78
2022/01/29 10:19:00;;;;;;;;;;;10.10;99.90;;;;;;5133617;27;20292;-78
2022/01/29 10:21:27;;;;;;;;;;;10.10;99.90;;;;;;5134061;27;19961;-78
2022/01/29 10:24:02;;;;;;;;;;;10.20;99.90;;;;;;5133693;27;19912;-79
2022/01/29 10:26:28;;;;;;;;;;;10.20;99.90;;;;;;5134647;27;19907;-79
2022/01/29 10:28:54;;;;;;;;;;;10.30;99.90;;;;;;5133701;27;19908;-78
2022/01/29 10:31:20;;;;;;;;;;;10.30;99.90;;;;;;5134240;27;19976;-78
2022/01/29 10:33:46;;;;;;;;;;;10.30;99.90;;;;;;5133016;27;20361;-78
2022/01/29 10:36:16;;;;;;;;;;;10.30;99.90;;;;;;5134298;27;19911;-79
2022/01/29 10:38:45;;;;;;;;;;;10.40;99.90;;;;;;5133300;27;19911;-79
2022/01/29 10:41:10;;;;;;;;;;;10.40;99.90;;;;;;5133976;27;20260;-79
2022/01/29 10:43:52;;;;;;;;;;;10.40;99.90;;;;;;5133874;27;19908;-76
2022/01/29 10:46:44;;;;;;;;;;;10.50;99.90;;;;;;5133919;27;19907;-78
2022/01/29 10:49:17;;;;;;;;;;;10.50;99.90;;;;;;5129257;27;20391;-78
2022/01/29 10:51:53;;;;;;;;;;;10.50;99.90;;;;;;5132671;27;20383;-78
2022/01/29 10:54:19;;;;;;;;;;;10.50;99.90;;;;;;5135218;27;19912;-78
2022/01/29 10:56:49;;;;;;;;;;;10.60;99.90;;;;;;5131702;27;20287;-78
2022/01/29 10:59:15;;;;;;;;;;;10.60;99.90;;;;;;5133983;27;20352;-78
2022/01/29 11:01:40;;;;;;;;;;;10.60;99.90;;;;;;5133303;27;19998;-76
2022/01/29 11:04:06;;;;;;;;;;;10.60;99.90;;;;;;5134092;27;19929;-79
2022/01/29 11:06:35;;;;;;;;;;;10.60;99.90;;;;;;5142019;27;19946;-79
2022/01/29 11:09:01;;;;;;;;;;;10.60;99.90;;;;;;5144168;27;20418;-79
2022/01/29 11:11:27;;;;;;;;;;;10.70;99.90;;;;;;5133453;27;19907;-79
2022/01/29 11:13:53;;;;;;;;;;;10.70;99.90;;;;;;5133009;27;20356;-78
2022/01/29 11:16:18;;;;;;;;;;;10.70;99.90;;;;;;5133717;27;19918;-78
2022/01/29 11:18:44;;;;;;;;;;;10.70;99.90;;;;;;5131961;27;19911;-78
2022/01/29 11:21:10;;;;;;;;;;;10.80;99.90;;;;;;5114906;28;19922;-78
2022/01/29 11:23:36;;;;;;;;;;;10.90;99.90;;;;;;5133561;28;19973;-79
2022/01/29 11:26:01;;;;;;;;;;;11.00;99.90;;;;;;5132252;28;20496;-79
2022/01/29 11:28:28;;;;;;;;;;;10.90;99.90;;;;;;5133416;28;19912;-79
2022/01/29 11:31:15;;;;;;;;;;;10.90;99.90;;;;;;5132570;28;20007;-79
2022/01/29 11:33:59;;;;;;;;;;;10.90;99.90;;;;;;5132627;28;19947;-76
2022/01/29 11:36:43;;;;;;;;;;;10.90;99.90;;;;;;5133594;28;19918;-79
2022/01/29 11:39:22;;;;;;;;;;;10.90;99.90;;;;;;5133064;28;19919;-79
2022/01/29 11:42:06;;;;;;;;;;;10.90;99.90;;;;;;5132200;28;20333;-79
2022/01/29 11:44:31;;;;;;;;;;;10.90;99.90;;;;;;5133243;28;19908;-79
2022/01/29 11:47:17;;;;;;;;;;;11.00;99.90;;;;;;5132404;28;19915;-79
2022/01/29 11:49:42;;;;;;;;;;;11.10;99.90;;;;;;5131923;28;19911;-76
2022/01/29 11:52:21;;;;;;;;;;;11.10;99.90;;;;;;5132827;28;20348;-79
2022/01/29 11:55:03;;;;;;;;;;;11.20;99.90;;;;;;5131949;28;20002;-79
2022/01/29 11:57:28;;;;;;;;;;;11.30;99.90;;;;;;5132914;28;19911;-79
2022/01/29 11:59:54;;;;;;;;;;;11.30;99.90;;;;;;5132244;28;19912;-79
2022/01/29 12:02:19;;;;;;;;;;;11.30;99.90;;;;;;5132956;28;19907;-79
2022/01/29 12:04:48;;;;;;;;;;;11.30;99.90;;;;;;5132129;28;19980;-76
2022/01/29 12:07:18;;;;;;;;;;;11.30;99.90;;;;;;5133729;27;19977;-79
2022/01/29 12:09:48;;;;;;;;;;;11.30;99.90;;;;;;5136034;27;20301;-78
2022/01/29 12:12:20;;;;;;;;;;;11.30;99.90;;;;;;5137084;27;19914;-79
2022/01/29 12:14:47;;;;;;;;;;;11.30;99.90;;;;;;5135736;27;20314;-77
2022/01/29 12:17:32;;;;;;;;;;;11.30;99.90;;;;;;5136910;27;19916;-79
2022/01/29 12:19:58;;;;;;;;;;;11.30;99.90;;;;;;5135967;27;20096;-79
2022/01/29 12:22:26;;;;;;;;;;;11.20;99.90;;;;;;5136284;27;19907;-79
2022/01/29 12:25:02;;;;;;;;;;;11.10;99.90;;;;;;5151517;27;19914;-79
2022/01/29 12:27:43;;;;;;;;;;;11.10;99.90;;;;;;5136715;27;19907;-79
2022/01/29 12:30:09;;;;;;;;;;;11.10;99.90;;;;;;5136962;27;19907;-79
2022/01/29 12:32:34;;;;;;;;;;;11.00;99.90;;;;;;5137099;27;19915;-79
2022/01/29 12:35:03;;;;;;;;;;;11.00;99.90;;;;;;5135348;27;20276;-79
2022/01/29 12:37:28;;;;;;;;;;;11.00;99.90;;;;;;5136458;27;19912;-79
2022/01/29 12:40:21;;;;;;;;;;;11.00;99.90;;;;;;5135437;27;19911;-78
2022/01/29 12:42:56;;;;;;;;;;;11.00;99.90;;;;;;5135758;27;20371;-76
2022/01/29 12:45:23;;;;;;;;;;;11.00;99.90;;;;;;5136565;27;19907;-79
2022/01/29 12:47:49;;;;;;;;;;;11.00;99.90;;;;;;5135426;27;19912;-78
2022/01/29 12:50:23;;;;;;;;;;;11.00;99.90;;;;;;5135685;27;19920;-79
2022/01/29 12:53:03;;;;;;;;;;;11.00;99.90;;;;;;5135223;27;19950;-78
2022/01/29 12:55:28;;;;;;;;;;;11.10;99.90;;;;;;5136288;27;20005;-79
2022/01/29 12:57:54;;;;;;;;;;;11.20;99.90;;;;;;5135351;27;19998;-79
2022/01/29 13:00:20;;;;;;;;;;;11.10;99.90;;;;;;5135986;27;19907;-79
2022/01/29 13:02:46;;;;;;;;;;;11.00;99.90;;;;;;5136160;27;19918;-77
2022/01/29 13:05:12;;;;;;;;;;;10.90;99.90;;;;;;5135130;27;19908;-79
2022/01/29 13:07:39;;;;;;;;;;;10.90;99.90;;;;;;5135501;27;19952;-81
2022/01/29 13:10:05;;;;;;;;;;;10.90;99.90;;;;;;5135019;27;20328;-79
2022/01/29 13:12:38;;;;;;;;;;;11.00;99.90;;;;;;5135509;27;19960;-79
2022/01/29 13:15:04;;;;;;;;;;;11.10;99.90;;;;;;5134910;27;19907;-80
2022/01/29 13:17:30;;;;;;;;;;;11.30;99.90;;;;;;5135578;27;20273;-78
2022/01/29 13:19:56;;;;;;;;;;;11.40;99.90;;;;;;5133895;27;19951;-79
2022/01/29 13:22:25;;;;;;;;;;;11.40;99.90;;;;;;5135440;27;20304;-78
2022/01/29 13:24:55;;;;;;;;;;;11.50;99.90;;;;;;5137141;27;20273;-76
2022/01/29 13:27:30;;;;;;;;;;;11.50;99.90;;;;;;5135426;27;19990;-80
2022/01/29 13:30:18;;;;;;;;;;;11.50;99.90;;;;;;5133949;27;19912;-79
2022/01/29 13:32:45;;;;;;;;;;;11.60;99.90;;;;;;5132114;27;19907;-79
2022/01/29 13:35:25;;;;;;;;;;;11.50;99.90;;;;;;5133933;27;20105;-78
2022/01/29 13:37:55;;;;;;;;;;;11.50;99.90;;;;;;5133189;27;19923;-77
2022/01/29 13:40:32;;;;;;;;;;;11.60;99.90;;;;;;5134752;27;19911;-80
2022/01/29 13:42:59;;;;;;;;;;;11.60;99.90;;;;;;5149408;27;19912;-79
2022/01/29 13:45:25;;;;;;;;;;;11.70;99.90;;;;;;5099640;27;19908;-80
2022/01/29 13:48:03;;;;;;;;;;;11.60;99.90;;;;;;5133855;27;19914;-77
2022/01/29 13:50:31;;;;;;;;;;;11.60;99.90;;;;;;5126764;27;19920;-78
2022/01/29 13:53:07;;;;;;;;;;;11.50;99.90;;;;;;5133512;27;19908;-78
2022/01/29 13:55:34;;;;;;;;;;;11.50;99.90;;;;;;5133900;27;20368;-78
2022/01/29 13:58:08;;;;;;;;;;;11.40;99.90;;;;;;5133771;27;19918;-79
2022/01/29 14:00:52;;;;;;;;;;;11.40;99.90;;;;;;5134586;27;20321;-78
2022/01/29 14:03:19;;;;;;;;;;;11.30;99.90;;;;;;5134029;27;19907;-78
2022/01/29 14:05:44;;;;;;;;;;;11.30;99.90;;;;;;5134713;27;19923;-80
2022/01/29 14:08:14;;;;;;;;;;;11.20;99.90;;;;;;5133579;27;19908;-79
2022/01/29 14:10:39;;;;;;;;;;;11.20;99.90;;;;;;5116210;27;19907;-79
2022/01/29 14:13:05;;;;;;;;;;;11.10;99.90;;;;;;5133527;27;19913;-79
2022/01/29 14:15:32;;;;;;;;;;;11.10;99.90;;;;;;5134332;27;19915;-79
2022/01/29 14:17:57;;;;;;;;;;;11.10;99.90;;;;;;5115299;27;20324;-79
2022/01/29 14:20:23;;;;;;;;;;;11.10;99.90;;;;;;5134142;27;19962;-80
2022/01/29 14:22:49;;;;;;;;;;;11.00;99.90;;;;;;5134010;27;20291;-79
2022/01/29 14:25:18;;;;;;;;;;;11.00;99.90;;;;;;5132889;27;19964;-79
2022/01/29 14:27:44;;;;;;;;;;;11.00;99.90;;;;;;5133963;27;19911;-79
2022/01/29 14:30:10;;;;;;;;;;;11.00;99.90;;;;;;5133177;27;19916;-79
2022/01/29 14:32:36;;;;;;;;;;;11.00;99.90;;;;;;5133821;27;19907;-79
2022/01/29 14:35:03;;;;;;;;;;;10.90;99.90;;;;;;5133315;27;19921;-79